MDT,Max TemperatureF,Mean TemperatureF,Min TemperatureF,Max Dew PointF,MeanDew PointF,Min DewpointF,Max Humidity, Mean Humidity, Min Humidity, Max Sea Level PressureIn, Mean Sea Level PressureIn, Min Sea Level PressureIn, Max VisibilityMiles, Mean VisibilityMiles, Min VisibilityMiles, Max Wind SpeedMPH, Mean Wind SpeedMPH, Max Gust SpeedMPH,PrecipitationIn, CloudCover, Events, WindDirDegrees
2013-9-1,98,86,73,60,51,40,56,35,14,29.81,29.75,29.69,10,10,10,15,5,21,0.00,2,,94
2013-9-2,95,85,74,57,53,47,46,35,23,30.06,29.84,29.75,10,10,10,28,9,37,T,3,Rain-Thunderstorm,57
2013-9-3,93,84,74,59,53,43,61,40,18,29.94,29.87,29.78,10,10,10,18,9,24,0.00,2,,59
2013-9-4,92,82,71,54,50,47,47,34,21,29.97,29.91,29.84,10,10,10,18,7,24,0.00,1,,75
2013-9-5,94,83,72,53,47,38,46,31,16,29.99,29.92,29.86,10,10,10,18,8,25,0.00,1,,82
2013-9-6,93,82,71,55,52,47,50,36,21,29.99,29.89,29.79,10,10,10,18,7,23,0.00,3,,103
2013-9-7,93,83,73,55,51,45,46,35,24,29.91,29.83,29.75,10,10,10,16,7,23,0.00,3,,96
2013-9-8,93,83,73,56,51,44,50,36,21,29.84,29.76,29.65,10,10,10,20,8,24,0.00,4,,116
2013-9-9,89,79,69,63,57,53,60,47,34,29.76,29.73,29.68,10,10,10,24,8,30,0.02,5,Rain,135
2013-9-10,79,73,67,67,65,62,93,76,58,30.07,29.86,29.78,10,9,2,18,5,23,0.92,8,Rain,145
2013-9-11,79,74,68,70,66,65,93,78,62,30.10,29.92,29.85,10,9,4,14,7,18,0.17,8,Rain,11
2013-9-12,70,67,64,66,64,61,100,92,84,30.12,29.96,29.86,10,7,1,20,9,23,1.90,8,Rain,28
2013-9-13,73,69,65,65,64,62,93,81,68,29.91,29.85,29.79,10,10,5,21,12,24,0.30,8,Rain,2
2013-9-14,83,74,65,62,58,52,87,61,34,29.86,29.79,29.72,10,10,10,15,8,20,T,4,Rain,39
2013-9-15,85,75,65,61,58,54,78,58,37,29.87,29.83,29.77,10,10,10,22,7,29,0.00,4,,41
2013-9-16,83,75,66,65,60,56,81,61,40,29.99,29.92,29.85,10,10,10,21,11,30,T,5,,17
2013-9-17,85,76,67,62,60,58,87,65,43,29.95,29.86,29.77,10,10,10,14,8,20,0.00,3,,103
2013-9-18,87,78,68,61,59,57,76,58,40,29.85,29.77,29.68,10,10,10,14,7,20,0.00,2,,150
2013-9-19,86,77,68,68,63,60,84,66,47,29.92,29.76,29.68,10,10,5,32,6,40,0.54,5,Rain-Thunderstorm,122
2013-9-20,82,74,66,64,59,53,87,62,37,29.93,29.85,29.76,10,10,10,17,8,23,0.00,2,,66
2013-9-21,80,71,62,60,55,52,84,62,39,29.99,29.89,29.81,10,10,10,14,6,20,0.00,2,,111
2013-9-22,85,74,62,55,52,48,73,51,29,29.79,29.69,29.56,10,10,10,16,7,22,0.00,1,,158
2013-9-23,85,76,67,54,42,35,47,32,17,29.84,29.72,29.60,10,10,10,23,10,33,0.00,0,,315
2013-9-24,86,73,59,43,38,33,53,35,16,29.98,29.89,29.83,10,10,10,15,6,17,0.00,0,,21
2013-9-25,90,74,58,51,46,39,60,41,21,29.82,29.71,29.61,10,10,10,18,5,24,0.00,1,,183
2013-9-26,88,78,68,51,44,39,46,33,20,29.72,29.64,29.59,10,10,10,21,8,26,T,3,,229
2013-9-27,87,77,67,56,50,37,57,39,20,29.76,29.66,29.58,10,10,10,22,12,29,T,4,Rain,251
2013-9-28,77,67,56,41,27,21,40,27,14,30.06,29.96,29.79,10,10,10,20,11,23,0.00,0,,8
2013-9-29,82,66,49,40,34,27,48,33,17,30.09,30.00,29.90,10,10,10,14,4,17,0.00,0,,4
2013-9-30,88,72,56,41,33,22,47,29,10,29.91,29.82,29.71,10,10,10,21,8,28,0.00,0,,257